Cebu Pacific AT72 at Manila on Mar 8th 2022, runway excursion on landing

Last Update: March 17, 2022 / 20:37:13 GMT/Zulu time

Bookmark this article
Incident Facts

Date of incident
Mar 8, 2022

Classification
Incident

Flight number
DG-6112

Aircraft Registration
RP-C7283

Aircraft Type
ATR ATR-72-200

ICAO Type Designator
AT72

Airport ICAO Code
RPLL

A Cebu Pacific Airlines Avions de Transport Regional ATR-72-212A, registration RP-C7283 performing flight DG-6112 from Naga to Manila (Philippines) with 42 passengers and 4 crew, landed on Manila's runway 24 at 11:27L (03:27Z) but went right off the runway and came to a stop on the grass just after the intersection with runway 13/31 about 1200 meters down runway 24. There were no injuries. The aircraft sustained minor if any damage.

The airline confirmed their flight DG-6112 suffered an incident.

The aircraft was towed off the runway area about 90 minutes after landing.

On Mar 17th 2022 Philippines AIB reported according to the pilots the aircraft bounced after touchdown and veered towards the right hand edge of the runway. The damage of the aircraft is being assessed, the occurrence was rated a serious incident and is being investigated by Philippines AIB.

Metars:
RPLL 080500Z 28005KT 250V310 8000 SCT025 30/23 Q1008 NOSIG RMK A2977=
RPLL 080400Z 29007KT 9000 FEW025 30/23 Q1009 NOSIG RMK A2980=
RPLL 080300Z 30008KT 270V360 9000 FEW025 SCT300 29/22 NOSIG RMK A2983=
RPLL 080200Z VRB04KT 9999 FEW025 30/23 Q1010 NOSIG RMK A2983=
RPLL 080100Z 16004KT 060V220 9999 FEW025 29/22 Q1010 NOSIG RMK A2983=
RPLL 080000Z 08006KT 050V130 9999 FEW025 28/22 Q1010 NOSIG RMK A2983=
RPLL 072300Z 13003KT 070V180 9999 FEW025 26/22 Q1009 NOSIG RMK A2980=
RPLL 072200Z 00000KT 9999 FEW025 26/22 Q1009 NOSIG RMK A2980=
Incident Facts

Date of incident
Mar 8, 2022

Classification
Incident

Flight number
DG-6112

Aircraft Registration
RP-C7283

Aircraft Type
ATR ATR-72-200

ICAO Type Designator
AT72

Airport ICAO Code
RPLL

This article is published under license from Avherald.com. © of text by Avherald.com.
Article source

You can read 2 more free articles without a subscription.

Subscribe now and continue reading without any limits!

Are you a subscriber? Login
Subscribe

Read unlimited articles and receive our daily update briefing. Gain better insights into what is happening in commercial aviation safety.

Free newsletter

Want to know more and stay ahead? Get our free weekly newsletter and join 5591 existing subscribers.

By subscribing, you accept our terms and conditions and confirm that you've read our privacy policy.

Send tip

Support AeroInside by sending a small tip amount.

Related articles

Newest articles

Subscribe today

Are you researching aviation incidents? Get access to AeroInside Insights, unlimited read access and receive the daily newsletter.

Pick your plan and subscribe

Partner

Blockaviation logo

A new way to document and demonstrate airworthiness compliance and aircraft value. Find out more.

Virtual Speech logo

ELITE Simulation Solutions is a leading global provider of Flight Simulation Training Devices, IFR training software as well as flight controls and related services. Find out more.

Get updates

Never miss an article from AeroInside. Subscribe to our free weekly newsletter and join 5591 existing subscribers.

By subscribing, you accept our terms and conditions and that you've read our privacy policy.

AeroInside Blog
Popular aircraft
Airbus A320
Boeing 737-800
Boeing 737-800 MAX
Popular airlines
American Airlines
United
Delta
Air Canada
Lufthansa
British Airways